createdAt,value
2022-12-17T00:01:54.141Z,12.37
2022-12-17T00:04:42.309Z,13.93
2022-12-17T00:07:27.848Z,12.97
2022-12-17T00:10:13.567Z,13.17
2022-12-17T00:12:59.338Z,13.47
2022-12-17T00:15:44.884Z,13.37
2022-12-17T00:18:30.666Z,15.23
2022-12-17T00:21:18.772Z,15.27
2022-12-17T00:24:05.592Z,17.17
2022-12-17T00:26:51.962Z,15.07
2022-12-17T00:29:37.853Z,14.23
2022-12-17T00:32:24.158Z,16.30
2022-12-17T00:35:10.858Z,15.97
2022-12-17T00:37:56.925Z,13.53
2022-12-17T00:40:42.936Z,13.63
2022-12-17T00:43:31.233Z,15.23
2022-12-17T00:46:18.049Z,14.50
2022-12-17T00:49:03.633Z,17.07
2022-12-17T00:51:49.337Z,16.57
2022-12-17T00:54:35.029Z,15.53
2022-12-17T00:57:20.873Z,13.77
2022-12-17T01:00:11.975Z,13.23
2022-12-17T01:02:57.854Z,14.43
2022-12-17T01:05:45.046Z,11.17
2022-12-17T01:08:33.207Z,11.57
2022-12-17T01:11:21.519Z,12.83
2022-12-17T01:14:07.440Z,15.43
2022-12-17T01:16:58.456Z,12.17
2022-12-17T01:19:45.064Z,12.93
2022-12-17T01:22:30.828Z,11.73
2022-12-17T01:25:17.556Z,14.07
2022-12-17T01:28:12.150Z,12.47
2022-12-17T01:30:58.303Z,11.60
2022-12-17T01:33:44.677Z,11.23
2022-12-17T01:36:30.548Z,13.00
2022-12-17T01:39:16.249Z,11.47
2022-12-17T01:42:02.002Z,12.23
2022-12-17T01:45:12.034Z,11.37
2022-12-17T01:48:06.212Z,10.67
2022-12-17T01:50:58.124Z,10.80
2022-12-17T01:53:49.238Z,12.27
2022-12-17T01:56:35.761Z,11.77
2022-12-17T01:59:25.200Z,12.53
2022-12-17T02:02:12.198Z,10.37
2022-12-17T02:05:01.237Z,10.50
2022-12-17T02:08:21.276Z,11.00
2022-12-17T02:11:22.252Z,10.23
2022-12-17T02:14:57.377Z,9.20
2022-12-17T02:17:58.721Z,9.33
2022-12-17T02:20:55.793Z,10.70
2022-12-17T02:24:09.916Z,10.17
2022-12-17T02:27:02.555Z,10.27
2022-12-17T02:29:58.977Z,9.30
2022-12-17T02:32:45.074Z,10.67
2022-12-17T02:35:37.398Z,9.50
2022-12-17T02:38:40.427Z,9.00
2022-12-17T02:41:36.723Z,8.53
2022-12-17T02:44:24.703Z,8.43
2022-12-17T02:47:12.586Z,9.03
2022-12-17T02:49:58.462Z,9.20
2022-12-17T02:52:45.912Z,9.30
2022-12-17T02:55:38.888Z,9.57
2022-12-17T02:58:24.608Z,8.30
2022-12-17T03:01:10.229Z,8.20
2022-12-17T03:03:55.901Z,9.70
2022-12-17T03:06:41.578Z,9.63
2022-12-17T03:09:27.313Z,9.30
2022-12-17T03:12:14.282Z,8.97
2022-12-17T03:15:00.065Z,9.40
2022-12-17T03:17:48.479Z,7.70
2022-12-17T03:20:34.693Z,8.70
2022-12-17T03:23:25.411Z,8.60
2022-12-17T03:26:11.092Z,9.03
2022-12-17T03:28:58.177Z,8.17
2022-12-17T03:31:44.145Z,10.17
2022-12-17T03:34:29.744Z,9.13
2022-12-17T03:37:19.237Z,8.50
2022-12-17T03:40:04.911Z,8.07
2022-12-17T03:42:50.699Z,8.80
2022-12-17T03:45:37.375Z,9.50
2022-12-17T03:48:33.063Z,9.83
2022-12-17T03:51:19.285Z,11.40
2022-12-17T03:54:05.806Z,11.70
2022-12-17T03:56:51.950Z,10.67
2022-12-17T03:59:45.486Z,10.03
2022-12-17T04:02:31.255Z,9.97
2022-12-17T04:05:20.332Z,10.13
2022-12-17T04:08:09.347Z,9.63
2022-12-17T04:10:54.736Z,10.80
2022-12-17T04:13:42.977Z,10.60
2022-12-17T04:16:30.245Z,11.83
2022-12-17T04:19:18.448Z,12.67
2022-12-17T04:22:04.709Z,13.40
2022-12-17T04:24:50.478Z,12.43
2022-12-17T04:27:36.975Z,13.23
2022-12-17T04:30:26.159Z,12.83
2022-12-17T04:33:11.897Z,12.03
2022-12-17T04:35:59.907Z,13.70
2022-12-17T04:38:45.461Z,12.73
2022-12-17T04:41:49.418Z,15.67
2022-12-17T04:44:40.213Z,12.23
2022-12-17T04:47:26.840Z,13.37
2022-12-17T04:53:53.751Z,12.07
2022-12-17T04:56:39.399Z,11.30
2022-12-17T04:59:31.952Z,12.93
2022-12-17T05:02:26.823Z,13.57
2022-12-17T05:05:36.968Z,14.10
2022-12-17T05:08:50.100Z,12.87
2022-12-17T05:11:35.963Z,15.53
2022-12-17T05:14:21.755Z,14.07
2022-12-17T05:17:07.125Z,16.03
2022-12-17T05:19:52.789Z,14.50
2022-12-17T05:22:38.566Z,17.50
2022-12-17T05:25:25.660Z,16.83
2022-12-17T05:28:11.335Z,17.60
2022-12-17T05:30:57.099Z,15.13
2022-12-17T05:33:42.663Z,19.30
2022-12-17T05:36:28.386Z,26.23
2022-12-17T05:39:14.033Z,18.63
2022-12-17T05:41:59.852Z,27.57
2022-12-17T05:44:45.552Z,24.13
2022-12-17T05:47:31.786Z,27.27
2022-12-17T05:50:17.580Z,32.17
2022-12-17T05:53:05.592Z,25.70
2022-12-17T05:55:51.124Z,20.13
2022-12-17T05:58:42.257Z,17.57
2022-12-17T06:01:28.299Z,31.20
2022-12-17T06:04:15.004Z,24.10
2022-12-17T06:07:00.598Z,13.87
2022-12-17T06:09:46.447Z,15.87
2022-12-17T06:12:32.013Z,42.10
2022-12-17T06:15:17.764Z,16.60
2022-12-17T06:18:16.470Z,29.73
2022-12-17T06:21:08.707Z,13.53
2022-12-17T06:24:05.419Z,12.77
2022-12-17T06:26:51.651Z,19.67
2022-12-17T06:29:37.355Z,21.60
2022-12-17T06:32:23.535Z,20.37
2022-12-17T06:35:09.121Z,25.20
2022-12-17T06:37:54.878Z,25.93
2022-12-17T06:40:40.474Z,17.30
2022-12-17T06:43:27.544Z,22.33
2022-12-17T06:46:13.593Z,19.03
2022-12-17T06:49:02.150Z,16.97
2022-12-17T06:51:47.854Z,17.57
2022-12-17T06:54:33.580Z,23.43
2022-12-17T06:57:19.773Z,15.63
2022-12-17T07:00:05.443Z,19.67
2022-12-17T07:02:51.326Z,16.87
2022-12-17T07:05:55.758Z,16.67
2022-12-17T07:08:41.388Z,22.03
2022-12-17T07:11:33.867Z,21.83
2022-12-17T07:14:22.278Z,15.57
2022-12-17T07:17:08.066Z,14.90
2022-12-17T07:19:54.141Z,14.73
2022-12-17T07:22:42.787Z,21.93
2022-12-17T07:25:28.764Z,18.87
2022-12-17T07:28:14.944Z,15.43
2022-12-17T07:31:04.797Z,18.47
2022-12-17T07:33:54.284Z,19.70
2022-12-17T07:36:41.048Z,19.57
2022-12-17T07:39:27.050Z,13.50
2022-12-17T07:42:12.910Z,14.77
2022-12-17T07:44:58.433Z,19.60
2022-12-17T07:47:44.078Z,15.90
2022-12-17T07:50:29.789Z,21.57
2022-12-17T07:53:34.480Z,17.53
2022-12-17T07:56:24.431Z,20.20
2022-12-17T07:59:10.139Z,23.83
2022-12-17T08:01:57.517Z,21.03
2022-12-17T08:04:44.046Z,20.73
2022-12-17T08:07:29.698Z,23.10
2022-12-17T08:10:15.862Z,16.40
2022-12-17T08:13:14.224Z,24.33
2022-12-17T08:16:05.033Z,21.57
2022-12-17T08:18:51.364Z,19.53
2022-12-17T08:21:37.988Z,18.97
2022-12-17T08:24:25.910Z,20.10
2022-12-17T08:27:14.756Z,22.53
2022-12-17T08:30:01.891Z,18.43
2022-12-17T08:32:47.549Z,20.97
2022-12-17T08:35:49.493Z,27.23
2022-12-17T08:42:19.802Z,19.47
2022-12-17T08:45:26.127Z,27.23
2022-12-17T08:51:31.346Z,20.07
2022-12-17T08:54:17.181Z,25.30
2022-12-17T08:57:11.759Z,28.33
2022-12-17T09:00:06.889Z,25.83
2022-12-17T09:02:58.840Z,21.83
2022-12-17T09:09:27.734Z,20.83
2022-12-17T09:12:38.507Z,22.53
2022-12-17T09:18:38.611Z,25.10
2022-12-17T09:21:40.157Z,25.83
2022-12-17T09:24:26.274Z,26.40
2022-12-17T09:27:11.963Z,26.60
2022-12-17T09:30:05.558Z,26.80
2022-12-17T09:32:51.312Z,23.60
2022-12-17T09:35:38.069Z,23.93
2022-12-17T09:38:23.865Z,23.17
2022-12-17T09:41:09.895Z,24.47
2022-12-17T09:44:20.486Z,25.10
2022-12-17T09:47:17.826Z,32.00
2022-12-17T09:50:03.781Z,22.53
2022-12-17T09:53:11.682Z,25.03
2022-12-17T09:59:58.897Z,23.70
2022-12-17T10:13:53.804Z,25.67
2022-12-17T10:17:17.663Z,25.70
2022-12-17T10:20:43.721Z,22.00
2022-12-17T10:24:01.938Z,24.23
2022-12-17T10:30:06.921Z,22.27
2022-12-17T10:42:06.902Z,23.37
2022-12-17T10:44:55.005Z,25.43
2022-12-17T10:48:02.636Z,25.53
2022-12-17T10:50:51.236Z,26.03
2022-12-17T10:53:55.749Z,29.17
2022-12-17T10:56:45.641Z,27.40
2022-12-17T10:59:43.979Z,26.43
2022-12-17T11:02:44.496Z,25.77
2022-12-17T11:11:51.314Z,23.33
2022-12-17T11:14:38.098Z,20.70
2022-12-17T11:17:43.330Z,22.17
2022-12-17T11:20:49.181Z,21.97
2022-12-17T11:23:39.673Z,17.97
2022-12-17T11:26:33.555Z,19.13
2022-12-17T11:29:19.241Z,17.60
2022-12-17T11:32:17.405Z,17.10
2022-12-17T11:38:58.091Z,17.90
2022-12-17T11:52:46.442Z,18.07
2022-12-17T11:55:48.585Z,18.47
2022-12-17T11:58:52.218Z,17.30
2022-12-17T12:01:57.473Z,20.17
2022-12-17T12:05:16.041Z,20.57
2022-12-17T12:08:21.552Z,19.40
2022-12-17T12:11:20.975Z,20.13
2022-12-17T12:14:43.563Z,20.40
2022-12-17T12:17:38.304Z,19.00
2022-12-17T12:20:42.654Z,19.30
2022-12-17T12:23:47.251Z,19.33
2022-12-17T12:26:48.771Z,19.50
2022-12-17T12:30:15.130Z,19.53
2022-12-17T12:33:41.017Z,19.90
2022-12-17T12:36:42.185Z,19.87
2022-12-17T12:39:38.358Z,18.23
2022-12-17T12:42:34.138Z,17.30
2022-12-17T12:45:45.758Z,18.00
2022-12-17T12:49:10.884Z,18.37
2022-12-17T12:51:56.679Z,18.13
2022-12-17T12:55:08.057Z,17.03
2022-12-17T12:57:56.600Z,19.00
2022-12-17T13:00:48.152Z,19.07
2022-12-17T13:03:58.095Z,16.70
2022-12-17T13:06:49.166Z,18.30
2022-12-17T13:09:16.208Z,17.00
2022-12-17T13:12:06.071Z,17.83
2022-12-17T13:14:52.526Z,16.90
2022-12-17T13:17:38.666Z,17.57
2022-12-17T13:20:27.098Z,18.70
2022-12-17T13:23:14.780Z,16.53
2022-12-17T13:25:42.797Z,18.23
2022-12-17T13:28:30.860Z,16.57
2022-12-17T13:31:03.384Z,17.53
2022-12-17T13:33:54.737Z,18.30
2022-12-17T13:36:21.716Z,16.30
2022-12-17T13:39:10.464Z,18.23
2022-12-17T13:41:38.771Z,16.23
2022-12-17T13:44:22.385Z,16.10
2022-12-17T13:46:50.509Z,16.33
2022-12-17T13:49:31.786Z,16.93
2022-12-17T13:52:18.500Z,16.00
2022-12-17T13:54:45.866Z,16.53
2022-12-17T13:57:26.486Z,15.03
2022-12-17T14:00:02.412Z,16.40
2022-12-17T14:02:35.155Z,17.40
2022-12-17T14:05:07.956Z,16.23
2022-12-17T14:07:38.913Z,16.20
2022-12-17T14:10:15.852Z,17.67
2022-12-17T14:12:43.529Z,17.17
2022-12-17T14:15:28.547Z,15.33
2022-12-17T14:17:56.844Z,16.10
2022-12-17T14:20:27.439Z,17.23
2022-12-17T14:23:12.804Z,16.60
2022-12-17T14:25:48.981Z,16.57
2022-12-17T14:28:23.657Z,17.80
2022-12-17T14:31:25.076Z,16.20
2022-12-17T14:33:38.919Z,17.07
2022-12-17T14:36:17.541Z,16.80
2022-12-17T14:39:02.567Z,16.87
2022-12-17T14:41:58.364Z,16.37
2022-12-17T14:44:34.964Z,16.13
2022-12-17T14:47:45.137Z,16.13
2022-12-17T14:50:12.073Z,16.57
2022-12-17T14:52:53.131Z,16.27
2022-12-17T14:55:36.146Z,15.47
2022-12-17T14:58:12.378Z,15.27
2022-12-17T15:00:52.593Z,16.13
2022-12-17T15:03:26.723Z,14.50
2022-12-17T15:05:59.081Z,15.60
2022-12-17T15:08:29.579Z,15.03
2022-12-17T15:11:18.060Z,14.57
2022-12-17T15:13:49.135Z,14.57
2022-12-17T15:16:18.658Z,15.43
2022-12-17T15:18:45.623Z,14.60
2022-12-17T15:21:19.659Z,14.90
2022-12-17T15:24:00.260Z,13.37
2022-12-17T15:26:27.580Z,13.63
2022-12-17T15:28:55.756Z,14.23
2022-12-17T15:31:25.464Z,14.47
2022-12-17T15:34:01.619Z,14.60
2022-12-17T15:36:31.832Z,14.50
2022-12-17T15:38:59.241Z,13.53
2022-12-17T15:41:44.743Z,14.53
2022-12-17T15:47:11.318Z,12.17
2022-12-17T15:49:38.391Z,11.53
2022-12-17T15:52:12.823Z,12.50
2022-12-17T15:54:39.856Z,11.77
2022-12-17T15:57:18.414Z,11.90
2022-12-17T15:59:48.055Z,12.60
2022-12-17T16:02:15.202Z,13.07
2022-12-17T16:05:24.757Z,11.90
2022-12-17T16:08:02.301Z,16.47
2022-12-17T16:10:30.078Z,15.20
2022-12-17T16:12:57.143Z,14.23
2022-12-17T16:15:42.818Z,13.90
2022-12-17T16:18:10.142Z,13.10
2022-12-17T16:20:39.128Z,12.70
2022-12-17T16:23:29.093Z,13.00
2022-12-17T16:26:16.823Z,12.47
2022-12-17T16:28:49.036Z,16.30
2022-12-17T16:31:19.790Z,12.93
2022-12-17T16:33:59.333Z,12.93
2022-12-17T16:36:37.963Z,13.00
2022-12-17T16:39:06.438Z,11.68
2022-12-17T16:41:44.754Z,13.33
2022-12-17T16:44:18.969Z,13.37
2022-12-17T16:46:49.091Z,12.07
2022-12-17T16:49:23.769Z,12.70
2022-12-17T16:51:51.917Z,15.00
2022-12-17T16:54:27.111Z,13.93
2022-12-17T16:56:54.803Z,13.20
2022-12-17T16:59:24.308Z,13.57
2022-12-17T17:01:54.375Z,13.40
2022-12-17T17:04:24.210Z,15.17
2022-12-17T17:07:07.886Z,14.30
2022-12-17T17:09:40.919Z,14.73
2022-12-17T17:12:28.557Z,13.20
2022-12-17T17:14:59.014Z,13.87
2022-12-17T17:17:54.144Z,13.87
2022-12-17T17:20:22.346Z,37.57
2022-12-17T17:23:08.359Z,13.73
2022-12-17T17:25:58.042Z,11.77
2022-12-17T17:28:25.675Z,12.27
2022-12-17T17:30:59.039Z,14.70
2022-12-17T17:33:47.044Z,12.80
2022-12-17T17:36:17.358Z,13.50
2022-12-17T17:38:44.803Z,12.83
2022-12-17T17:41:27.217Z,14.63
2022-12-17T17:44:03.421Z,15.13
2022-12-17T17:46:31.707Z,17.60
2022-12-17T17:49:00.535Z,14.63
2022-12-17T17:52:07.380Z,15.93
2022-12-17T17:54:21.044Z,15.00
2022-12-17T17:56:52.810Z,13.77
2022-12-17T17:59:29.148Z,13.33
2022-12-17T18:01:58.640Z,14.13
2022-12-17T18:04:29.106Z,12.47
2022-12-17T18:09:43.663Z,10.17
2022-12-17T18:12:29.725Z,9.90
2022-12-17T18:17:51.442Z,11.97
2022-12-17T18:20:28.128Z,10.73
2022-12-17T18:22:58.273Z,10.63
2022-12-17T18:25:30.517Z,9.57
2022-12-17T18:28:01.253Z,10.27
2022-12-17T18:30:28.700Z,9.93
2022-12-17T18:32:56.432Z,10.00
2022-12-17T18:35:28.757Z,11.07
2022-12-17T18:37:58.514Z,12.00
2022-12-17T18:40:33.216Z,15.57
2022-12-17T18:43:19.263Z,13.27
2022-12-17T18:45:46.551Z,10.63
2022-12-17T18:48:14.233Z,10.43
2022-12-17T18:50:42.777Z,10.83
2022-12-17T18:53:12.952Z,10.10
2022-12-17T18:55:45.143Z,10.10
2022-12-17T18:58:12.194Z,11.70
2022-12-17T19:00:39.328Z,10.43
2022-12-17T19:03:06.825Z,10.73
2022-12-17T19:05:33.886Z,11.30
2022-12-17T19:08:01.072Z,10.20
2022-12-17T19:10:31.031Z,9.73
2022-12-17T19:13:04.578Z,9.50
2022-12-17T19:15:31.919Z,9.57
2022-12-17T19:18:02.783Z,9.90
2022-12-17T19:20:33.877Z,9.37
2022-12-17T19:23:08.307Z,8.10
2022-12-17T19:25:35.783Z,8.10
2022-12-17T19:28:06.992Z,7.40
2022-12-17T19:30:35.525Z,6.20
2022-12-17T19:33:02.812Z,6.63
2022-12-17T19:35:33.717Z,5.93
2022-12-17T19:38:05.213Z,6.97
2022-12-17T19:40:41.247Z,6.30
2022-12-17T19:43:09.577Z,6.30
2022-12-17T19:45:38.538Z,6.63
2022-12-17T19:48:06.134Z,6.70
2022-12-17T19:50:33.262Z,6.03
2022-12-17T19:53:01.789Z,6.37
2022-12-17T19:55:28.954Z,6.77
2022-12-17T19:57:58.992Z,5.90
2022-12-17T20:00:27.037Z,7.43
2022-12-17T20:02:55.776Z,7.33
2022-12-17T20:05:25.166Z,6.90
2022-12-17T20:07:55.969Z,7.37
2022-12-17T20:10:24.622Z,7.37
2022-12-17T20:12:52.843Z,8.93
2022-12-17T20:15:26.321Z,8.10
2022-12-17T20:17:53.790Z,8.23
2022-12-17T20:20:20.874Z,8.97
2022-12-17T20:22:52.466Z,8.63
2022-12-17T20:25:31.399Z,8.77
2022-12-17T20:27:58.776Z,8.27
2022-12-17T20:30:26.735Z,8.07
2022-12-17T20:32:54.225Z,7.90
2022-12-17T20:35:22.551Z,7.87
2022-12-17T20:37:50.182Z,7.63
2022-12-17T20:40:17.743Z,8.43
2022-12-17T20:42:44.983Z,8.20
2022-12-17T20:45:12.484Z,8.53
2022-12-17T20:47:40.050Z,9.03
2022-12-17T20:50:08.351Z,9.40
2022-12-17T20:52:58.689Z,8.60
2022-12-17T20:55:30.983Z,8.57
2022-12-17T20:58:01.264Z,8.07
2022-12-17T21:00:28.714Z,9.40
2022-12-17T21:03:00.193Z,8.03
2022-12-17T21:05:46.352Z,9.00
2022-12-17T21:08:14.018Z,9.77
2022-12-17T21:10:41.345Z,9.50
2022-12-17T21:13:29.281Z,10.43
2022-12-17T21:16:02.237Z,10.60
2022-12-17T21:21:44.203Z,8.47
2022-12-17T21:24:11.978Z,7.80
2022-12-17T21:26:44.164Z,7.33
2022-12-17T21:29:12.117Z,6.93
2022-12-17T21:31:44.569Z,6.67
2022-12-17T21:34:16.771Z,7.17
2022-12-17T21:36:44.844Z,6.73
2022-12-17T21:39:14.585Z,6.87
2022-12-17T21:42:04.086Z,7.23
2022-12-17T21:44:32.566Z,7.80
2022-12-17T21:47:00.381Z,10.97
2022-12-17T21:49:28.777Z,11.73
2022-12-17T21:51:59.459Z,12.23
2022-12-17T21:54:27.581Z,13.60
2022-12-17T21:56:55.111Z,14.90
2022-12-17T21:59:24.895Z,14.90
2022-12-17T22:01:53.268Z,14.20
2022-12-17T22:04:20.772Z,13.47
2022-12-17T22:06:54.119Z,12.67
2022-12-17T22:10:10.940Z,12.77
2022-12-17T22:12:41.601Z,9.97
2022-12-17T22:15:11.138Z,9.40
2022-12-17T22:17:40.394Z,9.20
2022-12-17T22:20:11.254Z,9.47
2022-12-17T22:22:38.445Z,7.70
2022-12-17T22:25:08.602Z,7.27
2022-12-17T22:27:38.258Z,7.63
2022-12-17T22:30:25.987Z,6.47
2022-12-17T22:33:10.285Z,6.90
2022-12-17T22:38:29.371Z,6.57
2022-12-17T22:44:14.992Z,6.80
2022-12-17T22:44:29.476Z,8.40
2022-12-17T22:44:51.377Z,8.20
2022-12-17T22:47:20.037Z,7.63
2022-12-17T22:49:49.739Z,7.47
2022-12-17T22:52:18.912Z,6.87
2022-12-17T22:54:47.226Z,6.57
2022-12-17T22:57:35.942Z,5.70
2022-12-17T23:00:02.099Z,5.60
2022-12-17T23:02:29.310Z,5.20
2022-12-17T23:04:57.818Z,5.57
2022-12-17T23:07:31.432Z,5.97
2022-12-17T23:09:59.023Z,5.23
2022-12-17T23:12:44.580Z,4.73
2022-12-17T23:15:12.449Z,4.10
2022-12-17T23:17:39.594Z,4.20
2022-12-17T23:20:07.114Z,5.37
2022-12-17T23:22:35.347Z,5.07
2022-12-17T23:25:03.127Z,6.83
2022-12-17T23:27:31.404Z,7.13
2022-12-17T23:29:59.409Z,7.73
2022-12-17T23:32:26.837Z,7.97
2022-12-17T23:34:53.893Z,7.83
2022-12-17T23:37:20.940Z,7.87
2022-12-17T23:39:48.113Z,8.53
2022-12-17T23:42:15.530Z,7.40
2022-12-17T23:44:42.646Z,6.90
2022-12-17T23:47:21.894Z,6.80
2022-12-17T23:49:48.977Z,6.43
2022-12-17T23:52:16.366Z,7.20
2022-12-17T23:54:43.794Z,7.03
2022-12-17T23:57:10.875Z,7.10
2022-12-17T23:59:38.058Z,7.10
